createdAt,value
2022-10-05T00:01:30.488Z,8.93
2022-10-05T00:04:00.978Z,9.00
2022-10-05T00:06:29.876Z,8.70
2022-10-05T00:08:57.504Z,7.85
2022-10-05T00:11:25.081Z,8.40
2022-10-05T00:13:52.849Z,8.93
2022-10-05T00:16:21.256Z,8.20
2022-10-05T00:18:50.085Z,8.35
2022-10-05T00:21:21.042Z,7.55
2022-10-05T00:23:49.316Z,8.05
2022-10-05T00:26:18.923Z,7.38
2022-10-05T00:28:46.635Z,8.25
2022-10-05T00:31:16.601Z,7.70
2022-10-05T00:33:44.257Z,8.52
2022-10-05T00:36:12.133Z,7.55
2022-10-05T00:38:41.483Z,7.60
2022-10-05T00:41:12.619Z,7.55
2022-10-05T00:44:07.624Z,7.68
2022-10-05T00:46:39.104Z,7.90
2022-10-05T00:49:11.921Z,8.25
2022-10-05T00:51:39.721Z,8.05
2022-10-05T00:54:18.511Z,7.75
2022-10-05T00:56:54.283Z,7.13
2022-10-05T00:59:34.183Z,7.57
2022-10-05T01:02:05.905Z,7.50
2022-10-05T01:04:38.559Z,7.80
2022-10-05T01:07:13.005Z,7.65
2022-10-05T01:09:45.416Z,7.78
2022-10-05T01:12:17.442Z,8.27
2022-10-05T01:14:50.601Z,7.47
2022-10-05T01:17:21.941Z,7.70
2022-10-05T01:20:06.408Z,7.80
2022-10-05T01:22:42.154Z,7.30
2022-10-05T01:25:19.740Z,7.78
2022-10-05T01:27:54.707Z,8.27
2022-10-05T01:30:23.043Z,8.10
2022-10-05T01:32:55.133Z,8.05
2022-10-05T01:35:27.578Z,8.02
2022-10-05T01:37:59.108Z,7.93
2022-10-05T01:40:32.661Z,7.78
2022-10-05T01:43:05.032Z,8.25
2022-10-05T01:45:39.456Z,8.05
2022-10-05T01:48:09.528Z,8.35
2022-10-05T01:50:45.106Z,8.00
2022-10-05T01:53:18.082Z,8.90
2022-10-05T01:55:49.858Z,7.80
2022-10-05T01:58:24.042Z,8.38
2022-10-05T02:00:56.955Z,7.45
2022-10-05T02:03:27.781Z,8.23
2022-10-05T02:05:57.548Z,8.25
2022-10-05T02:08:28.348Z,8.75
2022-10-05T02:10:58.980Z,7.93
2022-10-05T02:13:31.670Z,8.55
2022-10-05T02:16:00.911Z,8.50
2022-10-05T02:18:31.347Z,8.23
2022-10-05T02:21:02.229Z,8.98
2022-10-05T02:23:33.569Z,8.27
2022-10-05T02:26:01.989Z,8.23
2022-10-05T02:28:34.331Z,8.20
2022-10-05T02:31:05.092Z,8.25
2022-10-05T02:33:33.668Z,9.13
2022-10-05T02:36:11.646Z,7.97
2022-10-05T02:38:45.132Z,8.50
2022-10-05T02:41:18.654Z,8.10
2022-10-05T02:43:50.710Z,8.05
2022-10-05T02:46:22.781Z,8.82
2022-10-05T02:48:57.061Z,8.35
2022-10-05T02:51:27.847Z,8.00
2022-10-05T02:54:01.289Z,8.35
2022-10-05T02:56:33.776Z,8.60
2022-10-05T02:59:05.906Z,8.23
2022-10-05T03:01:36.786Z,8.48
2022-10-05T03:04:10.239Z,8.60
2022-10-05T03:06:41.081Z,8.15
2022-10-05T03:09:10.367Z,8.02
2022-10-05T03:11:43.711Z,7.45
2022-10-05T03:14:15.563Z,8.05
2022-10-05T03:16:48.343Z,7.60
2022-10-05T03:19:22.958Z,7.85
2022-10-05T03:21:57.227Z,8.25
2022-10-05T03:24:38.716Z,8.23
2022-10-05T03:27:12.653Z,8.07
2022-10-05T03:29:45.093Z,7.57
2022-10-05T03:32:18.246Z,8.57
2022-10-05T03:34:48.563Z,7.55
2022-10-05T03:37:20.485Z,8.00
2022-10-05T03:39:52.407Z,7.63
2022-10-05T03:42:22.842Z,8.23
2022-10-05T03:44:53.846Z,8.07
2022-10-05T03:47:26.412Z,8.48
2022-10-05T03:50:03.165Z,7.25
2022-10-05T03:52:35.848Z,8.13
2022-10-05T03:55:06.545Z,8.30
2022-10-05T03:57:35.916Z,7.65
2022-10-05T04:00:07.315Z,8.40
2022-10-05T04:02:58.970Z,7.95
2022-10-05T04:05:29.541Z,8.75
2022-10-05T04:08:00.471Z,7.85
2022-10-05T04:10:30.033Z,8.15
2022-10-05T04:13:00.366Z,9.23
2022-10-05T04:15:32.599Z,8.13
2022-10-05T04:18:04.209Z,8.23
2022-10-05T04:20:35.780Z,9.38
2022-10-05T04:23:07.829Z,7.70
2022-10-05T04:25:37.923Z,8.68
2022-10-05T04:28:10.393Z,8.18
2022-10-05T04:30:40.652Z,8.35
2022-10-05T04:33:10.264Z,8.27
2022-10-05T04:35:41.584Z,7.93
2022-10-05T04:38:21.108Z,7.82
2022-10-05T04:40:56.393Z,7.78
2022-10-05T04:43:28.404Z,9.33
2022-10-05T04:46:04.273Z,8.68
2022-10-05T04:48:39.621Z,8.65
2022-10-05T04:51:18.248Z,8.00
2022-10-05T04:53:49.043Z,7.78
2022-10-05T04:56:20.150Z,8.50
2022-10-05T04:58:57.895Z,9.63
2022-10-05T05:01:42.477Z,8.15
2022-10-05T05:04:21.387Z,7.80
2022-10-05T05:06:55.008Z,8.32
2022-10-05T05:09:28.974Z,7.90
2022-10-05T05:12:14.475Z,8.45
2022-10-05T05:14:47.724Z,8.48
2022-10-05T05:17:24.690Z,8.10
2022-10-05T05:19:57.205Z,7.65
2022-10-05T05:22:27.466Z,8.25
2022-10-05T05:25:07.011Z,7.63
2022-10-05T05:27:39.664Z,7.50
2022-10-05T05:30:15.131Z,7.90
2022-10-05T05:32:47.825Z,9.38
2022-10-05T05:35:29.284Z,7.93
2022-10-05T05:38:00.323Z,8.48
2022-10-05T05:40:31.194Z,8.27
2022-10-05T05:43:00.231Z,8.45
2022-10-05T05:45:33.904Z,8.15
2022-10-05T05:48:05.174Z,8.25
2022-10-05T05:50:35.425Z,8.43
2022-10-05T05:53:06.724Z,8.15
2022-10-05T05:55:37.096Z,8.20
2022-10-05T05:58:06.978Z,8.30
2022-10-05T06:00:38.593Z,8.85
2022-10-05T06:03:12.491Z,9.13
2022-10-05T06:05:42.991Z,8.05
2022-10-05T06:08:15.408Z,9.20
2022-10-05T06:10:46.325Z,8.32
2022-10-05T06:13:16.748Z,9.75
2022-10-05T06:15:47.245Z,8.98
2022-10-05T06:18:17.869Z,8.60
2022-10-05T06:20:50.307Z,9.05
2022-10-05T06:23:21.245Z,9.05
2022-10-05T06:25:55.920Z,9.18
2022-10-05T06:28:25.948Z,8.50
2022-10-05T06:31:00.669Z,9.40
2022-10-05T06:33:40.100Z,8.82
2022-10-05T06:36:13.292Z,9.02
2022-10-05T06:38:53.728Z,9.00
2022-10-05T06:41:26.249Z,8.98
2022-10-05T06:43:58.110Z,9.15
2022-10-05T06:46:49.605Z,8.77
2022-10-05T06:49:42.416Z,8.05
2022-10-05T06:52:25.178Z,8.30
2022-10-05T06:54:57.764Z,9.30
2022-10-05T06:57:38.625Z,9.27
2022-10-05T07:00:15.667Z,8.02
2022-10-05T07:02:46.288Z,8.43
2022-10-05T07:05:31.074Z,8.52
2022-10-05T07:07:59.974Z,8.65
2022-10-05T07:10:31.933Z,9.18
2022-10-05T07:13:13.563Z,9.13
2022-10-05T07:15:43.769Z,7.88
2022-10-05T07:18:32.482Z,8.73
2022-10-05T07:21:05.872Z,8.70
2022-10-05T07:23:42.836Z,8.48
2022-10-05T07:26:15.553Z,8.98
2022-10-05T07:28:46.153Z,8.43
2022-10-05T07:31:19.477Z,9.13
2022-10-05T07:33:50.126Z,8.93
2022-10-05T07:36:41.657Z,8.35
2022-10-05T07:39:11.767Z,8.57
2022-10-05T07:41:43.576Z,8.73
2022-10-05T07:44:14.050Z,7.85
2022-10-05T07:46:51.114Z,8.40
2022-10-05T07:49:24.252Z,8.70
2022-10-05T07:51:56.037Z,8.38
2022-10-05T07:54:26.139Z,8.70
2022-10-05T07:56:56.872Z,8.98
2022-10-05T07:59:28.390Z,8.38
2022-10-05T08:02:00.812Z,8.63
2022-10-05T08:04:29.991Z,8.27
2022-10-05T08:07:00.617Z,9.05
2022-10-05T08:09:31.529Z,8.57
2022-10-05T08:12:03.848Z,8.80
2022-10-05T08:14:37.515Z,9.05
2022-10-05T08:17:11.925Z,8.63
2022-10-05T08:19:41.412Z,9.00
2022-10-05T08:22:13.624Z,8.68
2022-10-05T08:24:42.914Z,8.45
2022-10-05T08:27:14.017Z,8.07
2022-10-05T08:29:43.397Z,8.70
2022-10-05T08:32:15.069Z,8.32
2022-10-05T08:34:46.805Z,9.00
2022-10-05T08:37:19.721Z,8.70
2022-10-05T08:39:52.622Z,7.75
2022-10-05T08:42:35.318Z,8.80
2022-10-05T08:45:19.977Z,8.02
2022-10-05T08:48:02.987Z,9.43
2022-10-05T08:50:35.745Z,8.45
2022-10-05T08:53:19.823Z,8.27
2022-10-05T08:55:52.768Z,8.30
2022-10-05T08:58:33.117Z,8.82
2022-10-05T09:01:05.837Z,8.52
2022-10-05T09:04:00.583Z,9.32
2022-10-05T09:06:47.431Z,8.80
2022-10-05T09:09:25.666Z,9.00
2022-10-05T09:12:02.201Z,8.55
2022-10-05T09:14:34.015Z,8.93
2022-10-05T09:17:19.776Z,8.52
2022-10-05T09:20:07.337Z,9.32
2022-10-05T09:22:36.696Z,9.20
2022-10-05T09:25:22.055Z,9.27
2022-10-05T09:27:53.028Z,9.15
2022-10-05T09:30:27.245Z,8.85
2022-10-05T09:33:05.683Z,9.02
2022-10-05T09:35:52.122Z,8.55
2022-10-05T09:38:25.078Z,9.18
2022-10-05T09:41:11.748Z,8.88
2022-10-05T09:43:54.311Z,9.93
2022-10-05T09:46:39.714Z,8.52
2022-10-05T09:49:17.964Z,8.18
2022-10-05T09:51:58.643Z,8.88
2022-10-05T09:54:47.913Z,8.95
2022-10-05T09:57:26.613Z,7.75
2022-10-05T10:00:12.159Z,8.15
2022-10-05T10:02:58.344Z,9.25
2022-10-05T10:05:39.314Z,8.65
2022-10-05T10:08:11.237Z,8.88
2022-10-05T10:10:57.660Z,8.77
2022-10-05T10:13:36.919Z,8.68
2022-10-05T10:16:17.751Z,8.75
2022-10-05T10:19:06.169Z,8.02
2022-10-05T10:21:54.165Z,9.32
2022-10-05T10:24:30.723Z,9.40
2022-10-05T10:27:05.492Z,9.13
2022-10-05T10:29:51.530Z,11.10
2022-10-05T10:32:23.315Z,10.32
2022-10-05T10:35:00.384Z,10.48
2022-10-05T10:37:36.226Z,9.98
2022-10-05T10:40:15.495Z,10.30
2022-10-05T10:42:51.485Z,9.50
2022-10-05T10:45:33.669Z,10.10
2022-10-05T10:48:03.231Z,9.75
2022-10-05T10:50:50.205Z,10.63
2022-10-05T10:53:30.083Z,9.70
2022-10-05T10:56:04.379Z,10.32
2022-10-05T10:58:43.783Z,8.90
2022-10-05T11:01:17.961Z,9.07
2022-10-05T11:04:00.648Z,9.27
2022-10-05T11:06:37.937Z,8.52
2022-10-05T11:09:29.499Z,8.73
2022-10-05T11:12:17.721Z,8.23
2022-10-05T11:14:53.276Z,8.93
2022-10-05T11:17:33.305Z,7.60
2022-10-05T11:20:19.568Z,8.27
2022-10-05T11:22:53.466Z,9.43
2022-10-05T11:25:32.525Z,8.70
2022-10-05T11:28:04.932Z,9.27
2022-10-05T11:30:50.399Z,10.05
2022-10-05T11:33:27.541Z,8.38
2022-10-05T11:36:04.584Z,9.07
2022-10-05T11:38:44.111Z,8.73
2022-10-05T11:41:29.338Z,8.45
2022-10-05T11:44:15.464Z,9.02
2022-10-05T11:46:49.089Z,9.45
2022-10-05T11:49:23.192Z,8.52
2022-10-05T11:51:53.777Z,8.48
2022-10-05T11:54:58.495Z,8.77
2022-10-05T11:57:28.740Z,9.07
2022-10-05T11:59:59.126Z,8.50
2022-10-05T12:02:46.221Z,8.43
2022-10-05T12:05:18.199Z,9.55
2022-10-05T12:07:51.501Z,8.45
2022-10-05T12:10:27.583Z,7.80
2022-10-05T12:13:03.432Z,8.25
2022-10-05T12:15:34.007Z,8.40
2022-10-05T12:18:08.190Z,8.52
2022-10-05T12:20:39.467Z,7.95
2022-10-05T12:23:08.027Z,7.43
2022-10-05T12:25:39.364Z,8.05
2022-10-05T12:28:10.884Z,7.78
2022-10-05T12:30:56.095Z,7.05
2022-10-05T12:33:28.027Z,7.20
2022-10-05T12:35:59.020Z,8.00
2022-10-05T12:38:29.437Z,7.78
2022-10-05T12:41:04.228Z,7.80
2022-10-05T12:43:34.691Z,7.70
2022-10-05T12:46:08.560Z,7.18
2022-10-05T12:48:52.422Z,7.18
2022-10-05T12:51:23.515Z,7.25
2022-10-05T12:53:56.416Z,7.07
2022-10-05T12:56:31.142Z,7.18
2022-10-05T12:59:04.252Z,6.72
2022-10-05T13:01:38.789Z,6.93
2022-10-05T13:04:12.094Z,7.20
2022-10-05T13:06:43.726Z,6.60
2022-10-05T13:09:14.406Z,6.93
2022-10-05T13:11:46.838Z,6.95
2022-10-05T13:14:18.906Z,6.90
2022-10-05T13:16:54.707Z,6.70
2022-10-05T13:19:35.905Z,7.03
2022-10-05T13:22:22.165Z,6.85
2022-10-05T13:24:55.587Z,6.90
2022-10-05T13:27:24.693Z,6.38
2022-10-05T13:29:56.316Z,6.55
2022-10-05T13:32:25.367Z,6.55
2022-10-05T13:34:58.457Z,6.40
2022-10-05T13:37:31.752Z,6.22
2022-10-05T13:40:06.064Z,6.25
2022-10-05T13:42:35.974Z,6.07
2022-10-05T13:45:05.496Z,6.30
2022-10-05T13:47:38.825Z,5.88
2022-10-05T13:50:14.559Z,6.68
2022-10-05T13:52:48.905Z,6.68
2022-10-05T13:55:19.317Z,6.60
2022-10-05T13:57:53.303Z,6.78
2022-10-05T14:00:24.141Z,6.30
2022-10-05T14:02:56.264Z,6.20
2022-10-05T14:05:26.688Z,6.32
2022-10-05T14:07:55.594Z,6.25
2022-10-05T14:10:38.125Z,6.07
2022-10-05T14:13:21.566Z,6.35
2022-10-05T14:15:57.063Z,6.57
2022-10-05T14:18:25.440Z,6.28
2022-10-05T14:21:04.804Z,5.90
2022-10-05T14:23:32.417Z,6.63
2022-10-05T14:26:04.138Z,6.68
2022-10-05T14:28:33.292Z,6.53
2022-10-05T14:31:01.678Z,6.70
2022-10-05T14:33:30.619Z,6.38
2022-10-05T14:35:59.061Z,6.20
2022-10-05T14:38:29.736Z,6.35
2022-10-05T14:41:04.440Z,6.22
2022-10-05T14:43:31.998Z,5.97
2022-10-05T14:46:01.219Z,7.28
2022-10-05T14:48:29.667Z,6.50
2022-10-05T14:50:57.933Z,6.78
2022-10-05T14:53:26.644Z,7.00
2022-10-05T14:56:01.919Z,6.60
2022-10-05T14:58:35.961Z,6.35
2022-10-05T15:01:05.985Z,7.30
2022-10-05T15:03:46.565Z,6.90
2022-10-05T15:06:18.594Z,6.75
2022-10-05T15:09:02.564Z,6.60
2022-10-05T15:11:36.795Z,7.05
2022-10-05T15:14:06.772Z,6.65
2022-10-05T15:16:38.340Z,7.10
2022-10-05T15:19:16.153Z,6.70
2022-10-05T15:21:54.412Z,6.80
2022-10-05T15:24:24.277Z,6.75
2022-10-05T15:26:54.909Z,7.03
2022-10-05T15:29:29.416Z,6.55
2022-10-05T15:31:59.165Z,7.03
2022-10-05T15:34:31.344Z,7.00
2022-10-05T15:37:03.432Z,6.47
2022-10-05T15:39:34.660Z,7.20
2022-10-05T15:42:06.005Z,6.78
2022-10-05T15:44:41.387Z,6.68
2022-10-05T15:47:13.047Z,6.70
2022-10-05T15:49:47.713Z,7.00
2022-10-05T15:52:18.409Z,6.93
2022-10-05T15:55:00.807Z,6.15
2022-10-05T15:57:35.835Z,6.15
2022-10-05T16:00:10.174Z,6.28
2022-10-05T16:02:40.991Z,5.88
2022-10-05T16:05:15.131Z,5.68
2022-10-05T16:08:02.118Z,5.68
2022-10-05T16:10:31.999Z,6.05
2022-10-05T16:13:07.211Z,6.45
2022-10-05T16:15:38.200Z,5.50
2022-10-05T16:18:18.401Z,6.38
2022-10-05T16:20:49.912Z,5.90
2022-10-05T16:23:23.453Z,6.18
2022-10-05T16:25:58.252Z,6.07
2022-10-05T16:28:34.666Z,6.00
2022-10-05T16:31:06.982Z,5.55
2022-10-05T16:33:45.990Z,6.22
2022-10-05T16:36:19.405Z,6.07
2022-10-05T16:38:50.274Z,6.25
2022-10-05T16:41:19.680Z,6.45
2022-10-05T16:43:54.937Z,6.10
2022-10-05T16:46:30.006Z,6.68
2022-10-05T16:49:03.975Z,6.65
2022-10-05T16:51:34.624Z,5.82
2022-10-05T16:54:07.875Z,5.97
2022-10-05T16:56:40.521Z,6.25
2022-10-05T16:59:18.209Z,5.90
2022-10-05T17:01:51.505Z,6.13
2022-10-05T17:04:24.764Z,5.68
2022-10-05T17:07:00.674Z,6.10
2022-10-05T17:09:44.255Z,6.25
2022-10-05T17:12:21.294Z,6.15
2022-10-05T17:14:57.049Z,5.80
2022-10-05T17:17:33.892Z,6.10
2022-10-05T17:20:07.215Z,6.32
2022-10-05T17:22:36.058Z,5.68
2022-10-05T17:25:08.563Z,5.78
2022-10-05T17:27:50.992Z,5.90
2022-10-05T17:30:39.932Z,5.60
2022-10-05T17:33:25.665Z,5.70
2022-10-05T17:35:55.147Z,5.72
2022-10-05T17:38:24.119Z,5.65
2022-10-05T17:41:10.567Z,5.82
2022-10-05T17:43:38.585Z,5.60
2022-10-05T17:46:06.951Z,6.50
2022-10-05T17:49:06.580Z,6.47
2022-10-05T17:52:10.761Z,6.35
2022-10-05T17:55:07.255Z,6.10
2022-10-05T17:57:36.885Z,6.35
2022-10-05T18:00:05.624Z,6.00
2022-10-05T18:02:42.590Z,6.35
2022-10-05T18:05:21.901Z,6.10
2022-10-05T18:08:09.531Z,5.55
2022-10-05T18:10:41.280Z,5.85
2022-10-05T18:13:22.434Z,5.80
2022-10-05T18:15:50.338Z,6.05
2022-10-05T18:18:35.144Z,5.57
2022-10-05T18:21:24.467Z,5.18
2022-10-05T18:24:02.112Z,5.65
2022-10-05T18:26:35.429Z,5.55
2022-10-05T18:29:14.653Z,5.70
2022-10-05T18:31:47.861Z,5.40
2022-10-05T18:34:26.132Z,5.13
2022-10-05T18:36:57.957Z,5.72
2022-10-05T18:39:37.839Z,5.75
2022-10-05T18:42:11.622Z,5.85
2022-10-05T18:44:44.367Z,5.43
2022-10-05T18:47:16.175Z,5.32
2022-10-05T18:49:50.304Z,5.40
2022-10-05T18:52:22.090Z,5.30
2022-10-05T18:54:55.721Z,5.28
2022-10-05T18:57:31.494Z,5.47
2022-10-05T19:00:02.984Z,5.53
2022-10-05T19:02:35.279Z,5.20
2022-10-05T19:05:23.597Z,5.72
2022-10-05T19:08:02.572Z,4.95
2022-10-05T19:10:34.200Z,5.53
2022-10-05T19:13:08.213Z,5.38
2022-10-05T19:15:40.683Z,5.40
2022-10-05T19:18:14.987Z,5.13
2022-10-05T19:20:46.062Z,5.30
2022-10-05T19:23:21.176Z,5.00
2022-10-05T19:25:52.973Z,5.07
2022-10-05T19:28:25.563Z,5.18
2022-10-05T19:31:05.454Z,4.90
2022-10-05T19:33:38.852Z,4.88
2022-10-05T19:36:15.517Z,5.03
2022-10-05T19:38:51.225Z,4.97
2022-10-05T19:41:20.772Z,5.03
2022-10-05T19:43:57.715Z,5.00
2022-10-05T19:46:31.189Z,4.93
2022-10-05T19:49:00.126Z,4.93
2022-10-05T19:51:30.371Z,5.03
2022-10-05T19:54:01.246Z,5.20
2022-10-05T19:56:32.032Z,5.18
2022-10-05T19:59:10.518Z,5.15
2022-10-05T20:01:41.788Z,5.05
2022-10-05T20:04:10.584Z,5.15
2022-10-05T20:06:39.574Z,5.50
2022-10-05T20:09:19.775Z,5.25
2022-10-05T20:11:51.545Z,5.18
2022-10-05T20:14:20.164Z,5.32
2022-10-05T20:17:06.500Z,5.07
2022-10-05T20:19:55.879Z,5.38
2022-10-05T20:22:24.533Z,4.60
2022-10-05T20:24:53.408Z,5.00
2022-10-05T20:27:37.599Z,5.20
2022-10-05T20:30:05.697Z,5.45
2022-10-05T20:32:34.595Z,5.22
2022-10-05T20:35:02.109Z,5.38
2022-10-05T20:37:29.911Z,5.22
2022-10-05T20:39:57.387Z,5.53
2022-10-05T20:42:25.347Z,5.53
2022-10-05T20:44:56.644Z,5.45
2022-10-05T20:47:25.007Z,4.80
2022-10-05T20:49:54.551Z,5.18
2022-10-05T20:52:23.236Z,5.05
2022-10-05T20:54:53.651Z,5.22
2022-10-05T20:57:24.157Z,5.00
2022-10-05T20:59:52.180Z,5.30
2022-10-05T21:02:20.324Z,4.97
2022-10-05T21:04:48.413Z,5.30
2022-10-05T21:07:18.614Z,4.55
2022-10-05T21:09:46.626Z,5.47
2022-10-05T21:12:14.679Z,5.15
2022-10-05T21:14:42.377Z,5.30
2022-10-05T21:17:11.886Z,5.40
2022-10-05T21:19:40.240Z,5.78
2022-10-05T21:22:08.500Z,5.22
2022-10-05T21:24:38.096Z,5.28
2022-10-05T21:27:05.961Z,4.72
2022-10-05T21:29:34.159Z,5.03
2022-10-05T21:32:01.993Z,4.90
2022-10-05T21:34:29.695Z,4.75
2022-10-05T21:36:57.188Z,4.72
2022-10-05T21:39:25.237Z,5.28
2022-10-05T21:41:54.343Z,4.93
2022-10-05T21:44:21.928Z,4.75
2022-10-05T21:46:49.876Z,5.03
2022-10-05T21:49:19.853Z,4.88
2022-10-05T21:51:48.050Z,4.60
2022-10-05T21:54:17.718Z,4.63
2022-10-05T21:56:47.162Z,4.82
2022-10-05T21:59:17.247Z,4.55
2022-10-05T22:01:44.856Z,4.25
2022-10-05T22:04:12.497Z,4.85
2022-10-05T22:06:40.251Z,4.63
2022-10-05T22:09:07.743Z,4.00
2022-10-05T22:11:36.313Z,3.58
2022-10-05T22:14:03.998Z,3.97
2022-10-05T22:16:34.033Z,3.83
2022-10-05T22:19:03.361Z,3.92
2022-10-05T22:21:32.136Z,3.75
2022-10-05T22:24:02.623Z,4.10
2022-10-05T22:26:30.452Z,4.60
2022-10-05T22:28:58.582Z,4.10
2022-10-05T22:31:26.135Z,3.97
2022-10-05T22:33:55.072Z,3.78
2022-10-05T22:36:22.672Z,3.90
2022-10-05T22:38:50.506Z,3.63
2022-10-05T22:41:18.425Z,3.60
2022-10-05T22:43:48.611Z,3.47
2022-10-05T22:46:16.253Z,3.50
2022-10-05T22:48:43.775Z,3.53
2022-10-05T22:51:12.785Z,3.13
2022-10-05T22:53:40.347Z,2.75
2022-10-05T22:56:08.381Z,2.08
2022-10-05T22:58:36.229Z,2.15
2022-10-05T23:01:04.577Z,2.08
2022-10-05T23:03:32.248Z,2.63
2022-10-05T23:06:03.007Z,2.08
2022-10-05T23:08:32.581Z,2.25
2022-10-05T23:11:03.990Z,2.28
2022-10-05T23:13:31.747Z,2.50
2022-10-05T23:15:59.319Z,2.00
2022-10-05T23:18:27.333Z,2.22
2022-10-05T23:20:55.329Z,2.00
2022-10-05T23:23:22.951Z,2.30
2022-10-05T23:25:51.868Z,1.95
2022-10-05T23:28:19.573Z,2.15
2022-10-05T23:30:47.231Z,2.10
2022-10-05T23:33:14.864Z,2.20
2022-10-05T23:35:42.375Z,2.10
2022-10-05T23:38:09.888Z,2.50
2022-10-05T23:40:37.370Z,2.17
2022-10-05T23:43:06.587Z,2.40
2022-10-05T23:45:34.162Z,2.30
2022-10-05T23:48:01.719Z,2.40
2022-10-05T23:50:29.294Z,2.10
2022-10-05T23:52:56.903Z,2.28
2022-10-05T23:55:24.452Z,2.20
2022-10-05T23:57:51.993Z,2.30
